Elgin, Pennsylvania
Current Conditions -  °F | °C
As of 12:51 AM on Thursday 23 Oct 2014 (Local Time) from KERI Reporting Station
Overcast Overcast  
Wind Chill: 50°   Ceiling: 3800
Heat Index: 50°   Visibility: 10mi
Dew Point: 43°   Wind: 8mph
Humidity: 77%   Direction: 20°NNE
Pressure: 30.18"   Gusts: NA
Location:  41.9°N, 79.74°W
Report Text: KERI 230451Z 02007KT 10SM BKN038 OVC045 10/06 A3018 RMK AO2 SLP223 T01000061 401000078
Loading
Personal Weather Stations






























Interactive Weather Map New forecast layout! Learn more

10-Day Weather Forecast

Advertisements
Track Severe Weather on mobile